Time;durP1;ratioP1;P1;durP2;ratioP2;P2;SDS_P1;SDS_P2;PMS_P1;PMS_P2;Temp;Humidity;BMP_temperature;BMP_pressure;BME280_temperature;BME280_humidity;BME280_pressure;Samples;Min_cycle;Max_cycle;Signal;HPM_P1;HPM_P2
2023/02/07 00:01:13;;;;;;;12.45;5.78;;;;;;;-1.53;68.79;101081.78;4943184;28;20039;-93
2023/02/07 00:03:39;;;;;;;10.15;5.95;;;;;;;-1.68;69.93;101083.22;4943098;28;20030;-95
2023/02/07 00:06:08;;;;;;;8.55;5.10;;;;;;;-1.67;69.34;101085.72;4942347;28;20023;-92
2023/02/07 00:08:34;;;;;;;6.43;4.53;;;;;;;-1.73;69.40;101088.94;4943533;28;20470;-95
2023/02/07 00:11:07;;;;;;;8.45;5.60;;;;;;;-1.90;71.04;101100.28;4943265;28;20037;-96
2023/02/07 00:13:33;;;;;;;10.93;6.43;;;;;;;-2.08;71.53;101081.72;4959617;28;20031;-95
2023/02/07 00:15:58;;;;;;;7.70;5.18;;;;;;;-1.98;71.47;101079.88;4942697;28;20031;-95
2023/02/07 00:18:24;;;;;;;7.75;5.03;;;;;;;-1.93;71.80;101096.13;4942863;28;20023;-95
2023/02/07 00:21:03;;;;;;;10.85;5.38;;;;;;;-1.94;71.65;101099.72;4958673;28;20041;-95
2023/02/07 00:23:29;;;;;;;9.38;5.63;;;;;;;-1.77;71.70;101113.16;4943119;28;20031;-93
2023/02/07 00:25:55;;;;;;;9.70;5.13;;;;;;;-1.88;70.58;101095.69;4942249;28;20062;-93
2023/02/07 00:28:21;;;;;;;12.13;5.18;;;;;;;-1.87;70.91;101103.47;4942195;28;20031;-92
2023/02/07 00:30:46;;;;;;;10.93;5.72;;;;;;;-1.86;70.90;101110.41;4943307;28;20061;-94
2023/02/07 00:33:12;;;;;;;10.23;5.63;;;;;;;-1.86;70.24;101099.84;4943299;28;20465;-95
2023/02/07 00:35:38;;;;;;;9.73;5.18;;;;;;;-1.92;70.92;101108.34;4943267;28;20030;-95
2023/02/07 00:38:03;;;;;;;8.57;4.80;;;;;;;-2.04;70.80;101086.56;4942512;28;20036;-95
2023/02/07 00:40:29;;;;;;;9.48;5.55;;;;;;;-1.88;70.67;101114.19;4943249;28;20089;-93
2023/02/07 00:42:54;;;;;;;8.82;5.07;;;;;;;-2.22;71.60;101093.59;4959398;28;20042;-94
2023/02/07 00:45:20;;;;;;;6.38;5.47;;;;;;;-2.12;71.69;101093.53;4941901;28;20031;-95
2023/02/07 00:47:45;;;;;;;9.57;5.65;;;;;;;-2.16;71.39;101068.41;4942877;28;20505;-95
2023/02/07 00:50:11;;;;;;;7.88;4.50;;;;;;;-1.94;70.59;101093.63;4942522;28;20086;-95
2023/02/07 00:52:36;;;;;;;7.13;4.82;;;;;;;-2.03;70.61;101076.84;4942504;28;20034;-94
2023/02/07 00:55:02;;;;;;;8.55;5.07;;;;;;;-2.19;70.34;101072.19;4941548;28;20060;-94
2023/02/07 00:57:27;;;;;;;12.70;5.55;;;;;;;-2.06;70.14;101092.97;4942354;28;20054;-94
2023/02/07 00:59:53;;;;;;;8.48;5.18;;;;;;;-2.01;71.06;101092.53;4942732;28;20034;-94
2023/02/07 01:02:18;;;;;;;10.15;6.03;;;;;;;-2.10;70.47;101076.56;4945800;28;20042;-94
2023/02/07 01:04:44;;;;;;;9.57;5.53;;;;;;;-1.89;71.49;101112.50;4944798;28;20031;-95
2023/02/07 01:07:10;;;;;;;11.55;4.90;;;;;;;-2.07;70.91;101070.19;4945850;28;20034;-94
2023/02/07 01:09:35;;;;;;;10.65;6.05;;;;;;;-1.93;70.57;101096.13;4945889;28;20034;-94
2023/02/07 01:12:01;;;;;;;9.45;5.20;;;;;;;-1.87;70.86;101098.19;4945869;28;20113;-95
2023/02/07 01:14:26;;;;;;;8.05;5.55;;;;;;;-2.05;70.17;101074.34;4945922;28;20027;-94
2023/02/07 01:16:52;;;;;;;8.63;6.00;;;;;;;-2.03;70.41;101063.66;4945288;28;20026;-94
2023/02/07 01:19:17;;;;;;;6.65;4.72;;;;;;;-1.85;70.32;101080.41;4946038;28;20039;-94
2023/02/07 01:21:43;;;;;;;9.18;5.43;;;;;;;-1.75;69.64;101077.69;4944849;28;20026;-94
2023/02/07 01:24:09;;;;;;;12.98;6.07;;;;;;;-1.98;71.13;101081.69;4945450;28;20065;-94
2023/02/07 01:26:36;;;;;;;10.07;5.03;;;;;;;-1.87;70.83;101069.16;4946146;28;20058;-95
2023/02/07 01:29:01;;;;;;;9.55;5.45;;;;;;;-1.68;70.27;101085.88;4945726;28;20011;-95
2023/02/07 01:31:27;;;;;;;9.68;5.93;;;;;;;-1.60;69.75;101088.59;4944713;28;20035;-94
2023/02/07 01:33:55;;;;;;;7.28;4.35;;;;;;;-1.67;69.60;101066.41;4945533;28;20046;-93
2023/02/07 01:36:21;;;;;;;10.05;5.97;;;;;;;-1.50;70.30;101084.09;4945704;28;20214;-95
2023/02/07 01:38:46;;;;;;;9.52;5.68;;;;;;;-1.79;69.89;101073.69;4945985;28;20092;-95
2023/02/07 01:41:12;;;;;;;11.32;6.45;;;;;;;-1.71;70.76;101079.06;4944900;28;20551;-94
2023/02/07 01:43:59;;;;;;;8.35;4.88;;;;;;;-1.79;71.41;101084.25;4945586;28;20030;-95
2023/02/07 01:46:25;;;;;;;10.38;5.28;;;;;;;-2.18;71.13;101068.53;4961850;28;20034;-93
2023/02/07 01:48:51;;;;;;;7.35;5.38;;;;;;;-2.04;70.67;101081.28;4945687;28;20031;-95
2023/02/07 01:51:17;;;;;;;12.20;6.00;;;;;;;-1.99;71.17;101087.94;4946232;28;20388;-93
2023/02/07 01:53:42;;;;;;;7.47;4.50;;;;;;;-2.22;71.98;101096.22;4944365;28;20034;-94
2023/02/07 01:56:09;;;;;;;9.90;6.22;;;;;;;-2.05;72.78;101115.75;4944644;28;20030;-95
2023/02/07 01:58:35;;;;;;;8.02;5.45;;;;;;;-1.89;72.14;101105.44;4944958;28;20065;-95
2023/02/07 02:01:03;;;;;;;10.50;6.20;;;;;;;-1.85;71.89;101082.19;4944407;28;20026;-95
2023/02/07 02:03:28;;;;;;;7.13;5.32;;;;;;;-1.75;71.54;101093.53;4944768;28;20500;-94
2023/02/07 02:05:54;;;;;;;10.18;5.10;;;;;;;-1.81;70.36;101099.41;4944596;28;20026;-95
2023/02/07 02:08:21;;;;;;;7.65;4.35;;;;;;;-1.90;69.79;101097.66;4944637;28;20030;-94
2023/02/07 02:10:56;;;;;;;8.18;4.38;;;;;;;-1.88;70.37;101106.25;4945085;28;20073;-95
2023/02/07 02:13:30;;;;;;;11.02;5.32;;;;;;;-2.13;70.89;101089.25;4975481;28;20113;-95
2023/02/07 02:16:02;;;;;;;7.95;4.88;;;;;;;-2.19;71.45;101103.00;4960397;28;20023;-95
2023/02/07 02:18:34;;;;;;;;;;;;;;;-2.11;70.98;101111.06;4961716;28;20077;-93
2023/02/07 02:21:02;;;;;;;8.07;5.17;;;;;;;-2.24;71.65;101109.53;4960667;28;20508;-94
2023/02/07 02:23:46;;;;;;;7.75;4.95;;;;;;;-2.13;71.18;101110.34;4976245;28;20843;-93
2023/02/07 02:26:40;;;;;;;11.63;5.32;;;;;;;-2.22;71.68;101105.91;4975861;28;20038;-94
2023/02/07 02:29:34;;;;;;;8.77;5.38;;;;;;;-2.27;71.14;101111.63;4975434;28;20033;-95
2023/02/07 02:32:33;;;;;;;12.82;5.03;;;;;;;-2.42;72.27;101107.78;4976175;28;20031;-93
2023/02/07 02:35:15;;;;;;;9.77;5.25;;;;;;;-2.37;71.97;101100.25;4975989;28;20524;-95
2023/02/07 02:37:46;;;;;;;9.38;5.70;;;;;;;-2.31;70.96;101092.59;4945384;28;20042;-95
2023/02/07 02:40:30;;;;;;;9.10;5.63;;;;;;;-2.21;70.95;101103.16;4975953;28;20038;-95
2023/02/07 02:43:08;;;;;;;7.57;5.20;;;;;;;-2.38;71.29;101078.34;4976067;28;20043;-95
2023/02/07 02:45:44;;;;;;;14.05;5.88;;;;;;;-2.15;71.45;101099.94;4944610;28;20027;-94
2023/02/07 02:48:10;;;;;;;8.40;5.80;;;;;;;-2.24;70.38;101091.06;4943663;28;20027;-95
2023/02/07 02:50:35;;;;;;;12.52;7.40;;;;;;;-2.47;70.92;101090.56;4943557;28;20065;-93
2023/02/07 02:53:01;;;;;;;9.40;5.35;;;;;;;-2.35;70.90;101101.78;4943491;28;20414;-95
2023/02/07 02:55:59;;;;;;;11.02;5.35;;;;;;;-2.15;70.41;101093.84;4944783;28;20037;-95
2023/02/07 02:58:34;;;;;;;8.77;5.72;;;;;;;-2.05;70.58;101094.63;4975602;28;20058;-94
2023/02/07 03:01:11;;;;;;;9.48;5.32;;;;;;;-1.83;68.94;101107.50;4960842;28;20634;-95
2023/02/07 03:04:03;;;;;;;8.80;5.55;;;;;;;-1.89;69.27;101094.88;4959277;28;20129;-94
2023/02/07 03:06:45;;;;;;;7.28;4.88;;;;;;;-1.75;68.83;101119.94;4960343;28;20031;-93
2023/02/07 03:09:38;;;;;;;9.02;5.07;;;;;;;-1.76;68.78;101114.84;4974857;28;20030;-94
2023/02/07 03:12:29;;;;;;;9.38;5.80;;;;;;;-1.95;69.09;101121.00;4975710;28;20481;-95
2023/02/07 03:15:04;;;;;;;9.68;5.68;;;;;;;-2.19;68.65;101097.72;4962859;28;20030;-95
2023/02/07 03:17:33;;;;;;;11.23;6.22;;;;;;;-1.99;69.26;101106.41;4942503;28;20027;-95
2023/02/07 03:20:13;;;;;;;6.55;4.45;;;;;;;-2.07;69.31;101094.78;4943809;28;20042;-95
2023/02/07 03:22:38;;;;;;;11.95;5.85;;;;;;;-2.08;70.05;101116.03;4944127;28;20061;-95
2023/02/07 03:25:04;;;;;;;10.32;6.25;;;;;;;-2.18;69.01;101096.75;4943363;28;20027;-94
2023/02/07 03:27:30;;;;;;;7.85;5.20;;;;;;;-1.93;69.40;101130.44;4943754;28;20097;-95
2023/02/07 03:29:58;;;;;;;7.82;5.78;;;;;;;-1.89;69.33;101112.50;4959308;28;20031;-95
2023/02/07 03:32:33;;;;;;;13.55;6.22;;;;;;;-1.97;68.26;101109.75;4943691;28;20034;-95
2023/02/07 03:35:00;;;;;;;8.55;4.78;;;;;;;-1.75;68.43;101122.59;4943767;28;20121;-94
2023/02/07 03:37:49;;;;;;;9.80;5.28;;;;;;;-1.84;66.63;101089.97;4975209;28;20026;-95
2023/02/07 03:40:15;;;;;;;9.93;5.53;;;;;;;-1.75;67.15;101098.00;4943658;28;20055;-95
2023/02/07 03:43:03;;;;;;;12.00;5.60;;;;;;;-1.91;66.44;101096.81;4942680;28;20097;-95
2023/02/07 03:45:28;;;;;;;10.00;5.32;;;;;;;-1.71;66.60;101104.66;4942958;28;20031;-95
2023/02/07 03:47:56;;;;;;;10.82;4.93;;;;;;;-1.71;67.19;101116.03;4944188;28;20485;-94
2023/02/07 03:50:22;;;;;;;9.48;4.38;;;;;;;-1.83;66.52;101099.56;4958823;28;20035;-94
2023/02/07 03:52:47;;;;;;;7.20;4.68;;;;;;;-1.98;66.95;101090.44;4943927;28;20226;-96
2023/02/07 03:55:13;;;;;;;8.73;4.47;;;;;;;-1.82;66.85;101121.53;4958436;28;20397;-95
2023/02/07 03:57:39;;;;;;;7.80;4.68;;;;;;;-1.89;66.81;101110.72;4943493;28;20062;-95
2023/02/07 04:00:05;;;;;;;11.38;4.68;;;;;;;-2.00;66.89;101095.03;4943148;28;20066;-95
2023/02/07 04:02:30;;;;;;;8.70;4.85;;;;;;;-2.01;66.57;101097.81;4942920;28;20027;-93
2023/02/07 04:04:56;;;;;;;7.57;4.60;;;;;;;-2.05;66.85;101092.81;4941795;28;20046;-94
2023/02/07 04:07:21;;;;;;;6.95;4.78;;;;;;;-2.03;67.42;101112.00;4959946;28;20027;-95
2023/02/07 04:09:47;;;;;;;7.70;5.07;;;;;;;-1.99;66.18;101109.91;4943216;28;20027;-94
2023/02/07 04:12:12;;;;;;;8.52;5.57;;;;;;;-1.97;66.33;101105.31;4942910;28;20035;-95
2023/02/07 04:14:38;;;;;;;8.93;4.95;;;;;;;-2.07;66.30;101102.69;4942684;28;20034;-95
2023/02/07 04:17:03;;;;;;;8.07;4.78;;;;;;;-2.16;67.34;101105.34;4942643;28;20066;-95
2023/02/07 04:19:29;;;;;;;8.90;5.53;;;;;;;-2.16;67.53;101100.06;4942774;28;20037;-94
2023/02/07 04:21:54;;;;;;;9.35;4.65;;;;;;;-2.08;66.69;101114.22;4942605;28;20022;-95
2023/02/07 04:24:20;;;;;;;7.78;4.93;;;;;;;-2.17;66.28;101090.50;4942693;28;20038;-94
2023/02/07 04:26:47;;;;;;;7.25;4.90;;;;;;;-2.24;66.16;101103.44;4942531;28;20490;-94
2023/02/07 04:29:13;;;;;;;8.52;5.50;;;;;;;-2.27;66.08;101099.25;4943121;28;20015;-94
2023/02/07 04:31:40;;;;;;;9.75;5.07;;;;;;;-2.26;66.35;101100.13;4942565;28;20034;-93
2023/02/07 04:34:06;;;;;;;10.43;5.57;;;;;;;-2.19;66.64;101117.03;4958728;28;20027;-94
2023/02/07 04:36:32;;;;;;;10.95;5.68;;;;;;;-2.31;67.21;101121.63;4945376;28;20038;-94
2023/02/07 04:38:57;;;;;;;8.77;5.35;;;;;;;-2.22;67.42;101130.53;4945905;28;20050;-94
2023/02/07 04:41:23;;;;;;;11.40;5.95;;;;;;;-2.22;65.56;101109.41;4961821;28;20023;-95
2023/02/07 04:43:49;;;;;;;7.75;4.47;;;;;;;-2.21;66.56;101113.69;4945838;28;20062;-95
2023/02/07 04:46:14;;;;;;;9.50;5.60;;;;;;;-2.10;66.21;101120.63;4946099;28;20023;-95
2023/02/07 04:48:40;;;;;;;11.98;6.60;;;;;;;-2.03;66.03;101116.44;4945979;28;20034;-94
2023/02/07 04:51:06;;;;;;;11.52;5.32;;;;;;;-1.87;65.38;101137.78;4945160;28;20031;-93
2023/02/07 04:53:31;;;;;;;10.80;6.00;;;;;;;-2.12;66.87;101109.38;4945959;28;20031;-95
2023/02/07 04:55:57;;;;;;;10.20;6.03;;;;;;;-2.13;66.75;101118.28;4946151;28;20027;-93
2023/02/07 04:58:23;;;;;;;10.45;6.38;;;;;;;-2.07;66.01;101121.16;4934998;28;20506;-94
2023/02/07 05:00:51;;;;;;;13.57;7.22;;;;;;;-2.09;65.51;101120.47;4945148;28;20035;-92
2023/02/07 05:03:16;;;;;;;12.43;6.20;;;;;;;-2.16;66.71;101115.91;4937914;29;20452;-94
2023/02/07 05:05:42;;;;;;;9.68;5.93;;;;;;;-2.14;66.44;101125.34;4914778;29;20087;-93
2023/02/07 05:08:08;;;;;;;6.45;4.40;;;;;;;-2.12;66.68;101131.31;4928908;29;20031;-95
2023/02/07 05:10:33;;;;;;;11.57;6.50;;;;;;;-2.06;66.73;101130.72;4927785;28;20033;-92
2023/02/07 05:12:58;;;;;;;8.43;5.50;;;;;;;-2.15;64.88;101139.53;4946266;28;20085;-93
2023/02/07 05:15:24;;;;;;;10.55;6.03;;;;;;;-2.11;65.17;101132.97;4929866;28;20494;-95
2023/02/07 05:17:51;;;;;;;9.95;6.30;;;;;;;-2.04;64.51;101141.97;4929386;28;20297;-94
2023/02/07 05:20:17;;;;;;;11.93;5.93;;;;;;;-1.98;64.33;101140.59;4929841;28;20023;-95
2023/02/07 05:22:42;;;;;;;10.55;5.35;;;;;;;-2.00;64.37;101155.72;4930322;28;20122;-96
2023/02/07 05:25:10;;;;;;;7.85;4.88;;;;;;;-2.21;64.86;101145.38;4930825;28;20484;-96
2023/02/07 05:27:36;;;;;;;8.60;5.00;;;;;;;-2.28;65.27;101134.53;4943974;28;20034;-95
2023/02/07 05:30:02;;;;;;;6.85;4.57;;;;;;;-2.32;65.49;101153.44;4929125;28;20035;-94
2023/02/07 05:35:14;;;;;;;9.75;6.35;;;;;;;-2.33;66.06;101163.13;4939114;28;20071;-93
2023/02/07 05:37:40;;;;;;;12.88;5.70;;;;;;;-2.33;65.89;101152.59;4911165;29;20023;-96
2023/02/07 05:40:05;;;;;;;10.32;6.60;;;;;;;-2.30;65.19;101149.69;4911581;29;20055;-94
2023/02/07 05:42:31;;;;;;;9.32;5.70;;;;;;;-2.33;64.86;101149.94;4911963;29;20414;-94
2023/02/07 05:44:57;;;;;;;10.85;6.03;;;;;;;-2.29;65.15;101167.16;4913230;29;20054;-93
2023/02/07 05:47:22;;;;;;;10.98;6.28;;;;;;;-2.35;65.86;101151.06;4911305;29;20090;-96
2023/02/07 05:49:48;;;;;;;11.43;6.32;;;;;;;-2.30;67.07;101159.41;4929131;29;20035;-93
2023/02/07 05:52:14;;;;;;;11.05;7.88;;;;;;;-2.27;65.57;101143.28;4913381;29;20414;-94
2023/02/07 05:54:39;;;;;;;15.55;8.90;;;;;;;-2.00;65.56;101168.94;4913893;29;20027;-94
2023/02/07 05:57:05;;;;;;;14.70;7.47;;;;;;;-1.85;65.60;101172.81;4912954;29;20114;-92
2023/02/07 05:59:33;;;;;;;12.32;7.00;;;;;;;-1.97;62.94;101162.53;4923652;29;20036;-95
2023/02/07 06:01:58;;;;;;;12.75;6.30;;;;;;;-1.85;63.12;101179.88;4940509;28;20554;-93
2023/02/07 06:04:26;;;;;;;10.10;6.07;;;;;;;-1.69;62.72;101195.94;4930150;29;20058;-91
2023/02/07 06:06:52;;;;;;;14.00;6.25;;;;;;;-1.89;63.52;101176.72;4926606;29;20090;-93
2023/02/07 06:09:18;;;;;;;10.15;5.70;;;;;;;-1.70;61.95;101199.59;4925866;29;20019;-92
2023/02/07 06:11:43;;;;;;;9.80;6.50;;;;;;;-1.77;62.26;101182.63;4927868;29;20417;-92
2023/02/07 06:14:09;;;;;;;11.32;5.20;;;;;;;-1.77;62.56;101172.06;4911235;29;20023;-96
2023/02/07 06:16:34;;;;;;;10.52;5.93;;;;;;;-1.74;61.61;101189.44;4928834;29;20050;-93
2023/02/07 06:19:03;;;;;;;10.15;5.70;;;;;;;-1.58;62.23;101197.59;4926319;29;20089;-95
2023/02/07 06:21:28;;;;;;;12.25;6.10;;;;;;;-1.56;61.52;101171.03;4930395;29;20062;-93
2023/02/07 06:23:57;;;;;;;9.07;5.88;;;;;;;-1.68;62.97;101163.31;4932832;28;20445;-93
2023/02/07 06:26:30;;;;;;;8.73;6.07;;;;;;;-1.61;63.06;101171.47;4933458;28;20115;-94
2023/02/07 06:29:31;;;;;;;12.07;8.10;;;;;;;-1.44;62.57;101194.47;4929421;29;20027;-94
2023/02/07 06:31:59;;;;;;;16.60;7.90;;;;;;;-1.64;62.55;101177.88;4914313;29;20388;-96
2023/02/07 06:37:30;;;;;;;15.93;7.60;;;;;;;-1.15;62.17;101192.69;4894055;29;20035;-96
2023/02/07 06:40:08;;;;;;;15.13;8.20;;;;;;;-0.92;60.99;101214.28;4892308;29;20095;-96
2023/02/07 06:42:34;;;;;;;12.88;7.18;;;;;;;-1.01;60.09;101186.91;4878546;29;20111;-95
2023/02/07 06:45:03;;;;;;;13.25;5.93;;;;;;;-1.06;61.01;101176.78;4873991;29;20060;-96
2023/02/07 06:47:32;;;;;;;10.43;6.22;;;;;;;-1.00;59.92;101188.56;4873814;29;20021;-96
2023/02/07 06:50:16;;;;;;;12.95;6.80;;;;;;;-0.97;60.82;101190.09;4875041;29;20025;-96
2023/02/07 06:52:43;;;;;;;11.68;6.28;;;;;;;-0.87;60.32;101191.72;4895717;29;20045;-96
2023/02/07 06:55:31;;;;;;;8.68;5.68;;;;;;;-0.76;60.28;101222.41;4883440;29;20029;-94
2023/02/07 06:58:17;;;;;;;11.30;6.40;;;;;;;-1.17;60.88;101174.34;4902632;29;20107;-96
2023/02/07 07:00:42;;;;;;;9.48;6.22;;;;;;;-1.18;60.57;101185.91;4835286;29;20034;-95
2023/02/07 07:03:25;;;;;;;9.20;5.55;;;;;;;-1.05;60.97;101204.88;4859112;29;20148;-96
2023/02/07 07:25:52;;;;;;;8.20;4.20;;;;;;;-0.71;55.50;101187.56;4930206;28;20056;-95
2023/02/07 07:28:21;;;;;;;6.47;3.92;;;;;;;-0.46;56.23;101215.94;4916996;29;20038;-94
2023/02/07 07:45:21;;;;;;;8.43;3.20;;;;;;;-0.26;54.26;101208.66;4983226;28;20579;-94
2023/02/07 07:47:46;;;;;;;6.85;3.97;;;;;;;-0.46;54.79;101189.47;4961307;28;20512;-94
2023/02/07 07:50:12;;;;;;;8.85;4.88;;;;;;;-0.79;54.59;101183.00;4928751;28;20067;-94
2023/02/07 07:52:41;;;;;;;10.55;5.43;;;;;;;-0.80;53.73;101185.81;4928146;28;20221;-94
2023/02/07 07:55:07;;;;;;;7.30;4.07;;;;;;;-0.54;53.75;101201.78;4959546;28;20073;-94
2023/02/07 07:57:36;;;;;;;8.48;4.13;;;;;;;-0.70;53.18;101184.78;4927574;28;20027;-94
2023/02/07 08:00:05;;;;;;;5.65;3.45;;;;;;;-0.66;50.12;101175.56;4925838;28;20042;-94
2023/02/07 08:02:31;;;;;;;7.22;3.63;;;;;;;-0.76;51.36;101181.91;4940353;28;20027;-94
2023/02/07 08:04:57;;;;;;;9.60;5.82;;;;;;;-0.50;55.00;101214.56;4943422;28;20057;-95
2023/02/07 08:07:22;;;;;;;8.95;5.30;;;;;;;-0.54;54.84;101199.13;4928622;28;20031;-93
2023/02/07 08:09:51;;;;;;;32.40;18.10;;;;;;;-0.53;55.27;101190.22;4943584;28;20018;-95
2023/02/07 08:12:22;;;;;;;28.00;14.63;;;;;;;-0.35;53.87;101190.19;4946385;28;20031;-94
2023/02/07 08:14:57;;;;;;;19.83;11.32;;;;;;;-0.23;55.50;101178.41;4930485;28;20035;-95
2023/02/07 08:17:25;;;;;;;8.85;4.90;;;;;;;-0.22;54.17;101188.03;4926118;28;20035;-96
2023/02/07 08:19:58;;;;;;;8.05;4.40;;;;;;;-0.04;51.67;101193.31;4917462;28;20039;-94
2023/02/07 08:22:57;;;;;;;7.10;4.30;;;;;;;-0.04;49.65;101188.84;4927755;28;20026;-95
2023/02/07 08:25:24;;;;;;;55.92;26.67;;;;;;;-0.08;52.61;101179.53;4887121;29;20040;-93
2023/02/07 08:27:54;;;;;;;9.57;6.30;;;;;;;-0.25;51.15;101169.78;4874336;29;20558;-96
2023/02/07 08:30:25;;;;;;;7.25;4.18;;;;;;;-0.13;51.07;101183.63;4889540;29;20171;-95
2023/02/07 08:33:15;;;;;;;7.68;4.72;;;;;;;0.02;52.68;101189.19;4897173;29;20182;-96
2023/02/07 08:35:43;;;;;;;6.85;3.88;;;;;;;-0.22;50.06;101188.03;4900315;29;20095;-92
2023/02/07 08:38:12;;;;;;;5.85;3.35;;;;;;;-0.19;49.53;101193.00;4899573;29;20040;-96
2023/02/07 08:40:41;;;;;;;6.25;3.67;;;;;;;-0.48;49.91;101172.06;4897062;29;20148;-96
2023/02/07 08:43:15;;;;;;;6.72;3.55;;;;;;;-0.38;51.01;101178.13;4895501;29;20044;-96
2023/02/07 08:45:47;;;;;;;7.38;4.60;;;;;;;-0.24;52.01;101182.03;4901857;29;20044;-96
2023/02/07 08:48:25;;;;;;;5.70;3.10;;;;;;;-0.10;49.42;101200.03;4903667;29;20072;-96
2023/02/07 08:52:00;;;;;;;;;;;;;;;;;;;;;
2023/02/07 08:54:35;;;;;;;7.25;4.43;;;;;;;-0.10;51.75;101170.09;4915967;29;20036;-96
2023/02/07 09:03:14;;;;;;;7.20;3.90;;;;;;;0.03;47.98;101177.63;4978071;28;20417;-96
2023/02/07 09:05:39;;;;;;;5.38;3.47;;;;;;;0.20;47.95;101187.31;4933139;28;20038;-95
2023/02/07 09:08:17;;;;;;;8.60;5.13;;;;;;;0.44;47.81;101188.47;4922504;28;20022;-95
2023/02/07 09:11:07;;;;;;;6.88;3.80;;;;;;;0.54;47.06;101182.06;4933488;28;20031;-95
2023/02/07 09:13:48;;;;;;;9.15;4.03;;;;;;;0.70;46.02;101170.69;4929018;29;20051;-95
2023/02/07 09:16:51;;;;;;;7.25;4.75;;;;;;;1.03;46.36;101196.53;4931231;29;20083;-96
2023/02/07 09:19:58;;;;;;;;;;;;;;;;;;;;;
2023/02/07 09:29:46;;;;;;;4.80;3.20;;;;;;;0.55;45.02;101161.69;4959201;28;20114;-96
2023/02/07 09:32:30;;;;;;;5.07;3.20;;;;;;;0.72;44.45;101187.28;4939809;29;20043;-96
2023/02/07 09:35:01;;;;;;;4.13;3.03;;;;;;;0.29;45.73;101169.66;4934242;29;20050;-95
2023/02/07 09:37:28;;;;;;;6.30;3.35;;;;;;;0.04;45.88;101150.13;4928385;29;20133;-96
2023/02/07 09:40:03;;;;;;;;;;;;;;;;;;;;;
2023/02/07 09:42:56;;;;;;;9.05;3.80;;;;;;;0.07;47.75;101174.50;4918863;29;20054;-96
2023/02/07 09:49:03;;;;;;;6.97;3.97;;;;;;;0.20;48.35;101139.66;5000676;23;20059;-96
2023/02/07 10:23:31;;;;;;;8.20;4.57;;;;;;;0.33;48.08;101115.38;5180824;23;20143;-95
2023/02/07 10:26:37;;;;;;;6.80;3.90;;;;;;;0.25;48.10;101112.69;4913223;29;20055;-96
2023/02/07 10:29:24;;;;;;;11.65;4.90;;;;;;;0.19;47.97;101112.34;4902367;29;20037;-96
2023/02/07 10:35:47;;;;;;;;;;;;;;;;;;;;;
2023/02/07 10:41:15;;;;;;;7.38;3.78;;;;;;;0.46;48.62;101101.69;4980576;28;20058;-95
2023/02/07 10:43:51;;;;;;;8.13;5.07;;;;;;;0.68;48.24;101084.38;4964105;28;20046;-95
2023/02/07 10:46:27;;;;;;;7.88;3.78;;;;;;;0.59;46.90;101079.03;4936889;29;20139;-95
2023/02/07 10:48:57;;;;;;;7.32;4.47;;;;;;;0.64;46.82;101077.72;4928835;28;20030;-96
2023/02/07 10:51:56;;;;;;;7.30;3.95;;;;;;;1.27;48.76;101098.41;4927978;28;20173;-96
2023/02/07 10:54:46;;;;;;;;;;;;;;;;;;;;;
2023/02/07 10:57:24;;;;;;;8.23;4.55;;;;;;;1.63;46.93;101089.28;4957009;28;20130;-96
2023/02/07 11:03:21;;;;;;;9.85;4.57;;;;;;;1.65;46.58;101084.63;4866523;29;20094;-96
2023/02/07 11:05:58;;;;;;;9.60;5.35;;;;;;;1.73;47.62;101072.19;5016681;23;20095;-96
2023/02/07 11:09:05;;;;;;;8.60;5.05;;;;;;;1.64;47.01;101070.53;4915734;29;20051;-96
2023/02/07 11:12:07;;;;;;;;;;;;;;;;;;;;;
2023/02/07 11:14:39;;;;;;;11.57;7.80;;;;;;;1.63;47.62;101049.47;4962277;28;20059;-96
2023/02/07 11:17:22;;;;;;;10.55;5.13;;;;;;;1.91;47.75;101079.97;4921452;29;20028;-96
2023/02/07 11:23:21;;;;;;;8.32;4.57;;;;;;;2.06;45.97;101073.94;4941020;29;20110;-95
2023/02/07 11:26:45;;;;;;;9.40;4.63;;;;;;;1.96;45.98;101077.59;4903495;29;20027;-96
2023/02/07 11:29:26;;;;;;;5.82;3.97;;;;;;;1.53;47.07;101039.84;4945148;29;20039;-96
2023/02/07 11:32:17;;;;;;;9.90;5.75;;;;;;;1.65;46.32;101080.16;4939078;29;20051;-96
2023/02/07 11:35:31;;;;;;;8.30;4.75;;;;;;;1.40;46.98;101060.75;4917400;29;20054;-95
2023/02/07 11:38:46;;;;;;;6.55;4.65;;;;;;;1.36;49.11;101043.50;4874566;29;20179;-96
2023/02/07 11:41:30;;;;;;;10.00;5.35;;;;;;;1.32;48.19;101042.19;4868465;29;20037;-95
2023/02/07 11:43:59;;;;;;;7.68;4.95;;;;;;;1.45;47.98;101049.63;4853396;29;20058;-95
2023/02/07 11:46:48;;;;;;;9.20;5.07;;;;;;;1.48;49.16;101074.03;4842276;29;20067;-96
2023/02/07 11:49:28;;;;;;;8.65;5.20;;;;;;;1.37;49.13;101056.63;4877773;29;20092;-96
2023/02/07 11:51:58;;;;;;;9.32;6.20;;;;;;;1.43;50.21;101065.72;4858577;29;20041;-96
2023/02/07 11:54:47;;;;;;;11.27;5.53;;;;;;;1.40;49.28;101052.81;4846975;29;20056;-96
2023/02/07 11:57:21;;;;;;;13.65;5.78;;;;;;;1.38;48.74;101038.88;4854241;29;20069;-96
2023/02/07 12:04:02;;;;;;;14.82;8.70;;;;;;;1.48;49.39;101059.94;4982066;28;20062;-96
2023/02/07 12:06:48;;;;;;;11.27;5.50;;;;;;;1.40;48.70;101031.56;4952043;29;20067;-96
2023/02/07 12:09:52;;;;;;;9.05;5.47;;;;;;;1.55;49.00;101055.59;4954029;28;20034;-96
2023/02/07 12:12:23;;;;;;;8.43;5.72;;;;;;;1.34;49.74;101025.09;4966021;28;20035;-96
2023/02/07 12:18:57;;;;;;;9.50;5.78;;;;;;;1.13;50.78;101046.81;4906687;29;20126;-96
2023/02/07 12:21:32;;;;;;;11.05;5.55;;;;;;;1.05;50.14;101051.31;4893769;28;20036;-95
2023/02/07 12:24:42;;;;;;;14.18;6.22;;;;;;;0.80;52.03;101024.75;4925259;28;20540;-95
2023/02/07 12:27:07;;;;;;;10.88;5.97;;;;;;;1.05;49.69;101056.59;4909485;28;20042;-93
2023/02/07 12:56:18;;;;;;;15.35;7.88;;;;;;;1.09;51.32;101069.38;4989872;28;20069;-96
2023/02/07 12:58:56;;;;;;;9.85;6.53;;;;;;;1.11;50.31;101055.94;4968785;28;20081;-96
2023/02/07 13:01:59;;;;;;;15.68;8.93;;;;;;;1.08;50.72;101058.91;4964772;28;20042;-95
2023/02/07 13:04:57;;;;;;;14.07;6.82;;;;;;;0.92;50.92;101054.44;4987030;28;20103;-95
2023/02/07 13:07:38;;;;;;;14.45;7.82;;;;;;;0.97;51.03;101052.13;4987077;28;20134;-92
2023/02/07 13:10:35;;;;;;;13.23;7.45;;;;;;;1.00;51.09;101047.31;4977238;28;20042;-96
2023/02/07 13:13:22;;;;;;;13.02;7.18;;;;;;;1.25;52.25;101062.44;5008121;28;20065;-96
2023/02/07 13:16:28;;;;;;;13.20;7.03;;;;;;;1.06;52.46;101058.25;4969935;28;20042;-96
2023/02/07 13:19:10;;;;;;;14.57;8.88;;;;;;;0.81;52.43;101050.28;4985831;28;20549;-96
2023/02/07 13:21:49;;;;;;;13.70;8.00;;;;;;;0.73;52.09;101032.53;4929912;29;20137;-95
2023/02/07 13:24:17;;;;;;;11.73;6.90;;;;;;;0.98;50.94;101051.13;4935797;29;20047;-95
2023/02/07 13:26:48;;;;;;;14.85;7.00;;;;;;;0.89;51.03;101031.72;4918790;29;20140;-96
2023/02/07 13:29:55;;;;;;;12.75;7.30;;;;;;;0.86;52.80;101049.78;4955898;23;20063;-96
2023/02/07 13:33:12;;;;;;;15.95;7.60;;;;;;;1.00;50.54;101026.09;4911397;29;20086;-96
2023/02/07 13:38:48;;;;;;;8.80;5.82;;;;;;;1.31;49.39;101033.41;5082883;23;20328;-96
2023/02/07 13:55:04;;;;;;;12.25;7.57;;;;;;;0.79;51.10;101039.84;5018720;23;20059;-96
2023/02/07 14:00:22;;;;;;;14.15;8.35;;;;;;;0.64;50.65;101022.88;4962249;28;20058;-96
2023/02/07 14:03:02;;;;;;;12.82;7.35;;;;;;;0.74;51.03;101034.19;4930872;29;20458;-96
2023/02/07 14:05:42;;;;;;;16.92;8.27;;;;;;;0.83;51.72;101039.50;4920132;28;20058;-95
2023/02/07 14:08:20;;;;;;;14.05;7.70;;;;;;;0.96;52.43;101051.28;4926890;29;20055;-96
2023/02/07 14:10:51;;;;;;;15.95;9.30;;;;;;;0.72;53.26;101028.22;4947756;29;20215;-95
2023/02/07 14:13:37;;;;;;;12.48;8.30;;;;;;;0.85;52.15;101037.50;4930002;29;20067;-94
2023/02/07 14:16:03;;;;;;;14.20;8.57;;;;;;;0.93;54.60;101056.91;4925921;29;20020;-94
2023/02/07 14:18:49;;;;;;;16.75;9.95;;;;;;;0.97;54.36;101020.28;4948819;29;20170;-94
2023/02/07 14:21:17;;;;;;;15.30;8.10;;;;;;;1.12;54.64;101049.63;4915357;29;20038;-94
2023/02/07 14:27:32;;;;;;;13.23;8.77;;;;;;;0.85;55.78;101008.34;4941263;29;20039;-96
2023/02/07 14:30:29;;;;;;;;;;;;;;;;;;;;;
2023/02/07 14:34:42;;;;;;;14.15;8.70;;;;;;;0.89;55.96;101010.50;4951232;28;20064;-96
2023/02/07 14:36:59;;;;;;;;;;;;;;;;;;;;;
2023/02/07 14:39:30;;;;;;;17.70;9.75;;;;;;;0.87;56.93;101025.78;4914371;29;20118;-94
2023/02/07 14:42:42;;;;;;;19.85;9.38;;;;;;;0.97;56.90;101029.06;4918828;29;20081;-93
2023/02/07 14:45:19;;;;;;;13.77;8.43;;;;;;;0.84;56.89;101009.34;4947292;29;20027;-95
2023/02/07 14:48:05;;;;;;;13.80;8.98;;;;;;;0.70;58.88;101014.28;4934841;29;20267;-95